メインページ
METAR-TAF:

METAR-TAF

空港 :

ヴォルゴグラード, ロシア

ヴォルゴグラード国際空港

緯度: 48-47N, 経度: 044-22E, 海抜: 145m

現時点の気象観測

当レポートは22分前の20:30(UTC)に作成
西/南西の風 8kt
気温 1°C
湿度 86%
気圧 1025 hPa
視程10km以上
1,500メートル以下は雲なし、積乱雲なし

METAR: URWW 112030Z 25004MPS CAVOK 01/M01 Q1025 R24/350240 NOSIG

時間: 23:52 (20:52 UTC)

予報

当レポートは53分前の19:59(UTC)に作成
予報は11日の 21時(UTC)から 12日の 06時(UTC)まで有効
西/南西の風 10kt、最大21ktの突風を伴う
視程: 3100m
高度700ftの曇り
11日の 21時(UTC)から 11日の 24時(UTC)まで一時的に
南/南西の風 16kt、最大25ktの突風を伴う
視程: 0300m
高度200ftの曇り
着氷性の雨, 着氷性の霧
12日の 00時(UTC)から 12日の 06時(UTC)まで一時的に
南西の風 16kt、最大27ktの突風を伴う
視程: 0300m
高度200ftの曇り
小雨, 霧

TAF: URWW 111959Z 1121/1206 25005G11MPS 3100 BR OVC007 TEMPO 1121/1124 21008G13MPS 0300 FZRA FZFG OVC002 TEMPO 1200/1206 22008G14MPS 0300 -RA FG OVC002

4,000以上の空港の気象観測と天気予報(METAR報とTAF報)

利用可能な観測所は地図上に黄色い丸と赤い丸で示す。

丸の上にカーソルを重ねると観測所名を参照できる。

次にクリックすると気象観測と天気予報を参照できる。

マップの切り替え:黒色「×」印の緑ボタンをクリックして拡大、「-」印の緑ボタンをクリックして縮小、緑色の三角印をクリックして隣りの地図に切り替え


METAR-TAF: